Terminal Aerodrome Forecast
Issued by NWS

Home | Current Version | Previous Version | Text Only | Print | Product List | Glossary On
Versions: 1 2 3 4 5 6 7 8 9 10 11 12 13 14 15 16
000
FTUS43 KABR 190700 AAB
TAFMBG
TAF AMD
KMBG 190759Z 1908/2006 33018G25KT P6SM VCSH BKN015 BKN025 OVC045
      TEMPO 1908/1909 FEW015 SCT025 OVC050
     FM190900 32022G32KT P6SM BKN040 OVC060
     FM191400 33027G37KT P6SM SCT040
     FM191900 33027G37KT P6SM VCSH BKN050
     FM200100 32017KT P6SM SKC=

USA.gov is the U.S. government's official web portal to all federal, state and local government web resources and services.